createdAt,value
2022-10-22T00:09:20.000Z,29.80
2022-10-22T00:19:20.000Z,30.70
2022-10-22T00:39:20.000Z,30.00
2022-10-22T00:49:20.000Z,29.40
2022-10-22T00:59:20.000Z,26.00
2022-10-22T01:09:20.000Z,26.40
2022-10-22T01:19:20.000Z,24.30
2022-10-22T01:29:20.000Z,23.40
2022-10-22T01:39:20.000Z,24.00
2022-10-22T01:49:20.000Z,20.00
2022-10-22T02:09:19.000Z,20.30
2022-10-22T02:19:19.000Z,19.60
2022-10-22T02:29:19.000Z,22.20
2022-10-22T02:39:19.000Z,23.70
2022-10-22T02:49:19.000Z,23.90
2022-10-22T02:59:19.000Z,22.00
2022-10-22T03:09:19.000Z,23.90
2022-10-22T03:19:19.000Z,24.80
2022-10-22T03:39:19.000Z,26.80
2022-10-22T03:49:19.000Z,25.50
2022-10-22T03:59:19.000Z,25.60
2022-10-22T04:09:19.000Z,25.30
2022-10-22T04:19:19.000Z,26.10
2022-10-22T04:29:19.000Z,22.70
2022-10-22T04:39:19.000Z,22.50
2022-10-22T04:49:19.000Z,23.80
2022-10-22T05:09:19.000Z,24.60
2022-10-22T05:19:18.000Z,22.50
2022-10-22T05:29:18.000Z,25.70
2022-10-22T05:39:18.000Z,25.00
2022-10-22T05:49:18.000Z,26.20
2022-10-22T05:59:18.000Z,24.20
2022-10-22T06:09:18.000Z,29.50
2022-10-22T06:19:18.000Z,26.80
2022-10-22T06:39:18.000Z,25.70
2022-10-22T06:49:18.000Z,26.30
2022-10-22T07:14:36.000Z,25.90
2022-10-22T07:14:36.000Z,22.20
2022-10-22T07:24:36.000Z,19.50
2022-10-22T07:34:36.000Z,16.40
2022-10-22T07:44:36.000Z,15.30
2022-10-22T07:54:36.000Z,13.70
2022-10-22T08:04:36.000Z,13.80
2022-10-22T08:14:36.000Z,13.30
2022-10-22T08:24:36.000Z,10.80
2022-10-22T08:44:36.000Z,10.60
2022-10-22T08:54:36.000Z,10.10
2022-10-22T09:04:36.000Z,9.20
2022-10-22T09:14:36.000Z,7.90
2022-10-22T09:24:36.000Z,7.80
2022-10-22T09:34:36.000Z,5.30
2022-10-22T09:44:36.000Z,5.60
2022-10-22T09:54:35.000Z,4.70
2022-10-22T10:14:35.000Z,4.40
2022-10-22T10:24:35.000Z,4.20
2022-10-22T10:34:35.000Z,3.30
2022-10-22T10:44:35.000Z,3.10
2022-10-22T11:14:51.000Z,4.20
2022-10-22T11:14:51.000Z,4.50
2022-10-22T11:24:51.000Z,3.30
2022-10-22T11:34:51.000Z,4.00
2022-10-22T11:44:50.000Z,3.00
2022-10-22T11:54:50.000Z,2.90
2022-10-22T12:04:50.000Z,3.10
2022-10-22T12:14:50.000Z,2.70
2022-10-22T12:24:49.000Z,3.00
2022-10-22T12:44:49.000Z,3.00
2022-10-22T12:54:49.000Z,3.00
2022-10-22T13:04:49.000Z,3.70
2022-10-22T13:14:48.000Z,3.80
2022-10-22T13:24:48.000Z,3.70
2022-10-22T13:34:48.000Z,3.60
2022-10-22T13:44:48.000Z,3.40
2022-10-22T13:54:48.000Z,3.80
2022-10-22T14:14:47.000Z,5.80
2022-10-22T14:24:47.000Z,4.60
2022-10-22T14:34:47.000Z,5.20
2022-10-22T14:44:47.000Z,6.60
2022-10-22T14:54:47.000Z,6.70
2022-10-22T15:04:46.000Z,5.60
2022-10-22T15:14:46.000Z,5.80
2022-10-22T15:24:46.000Z,5.30
2022-10-22T15:44:46.000Z,5.20
2022-10-22T15:54:45.000Z,5.30
2022-10-22T16:04:45.000Z,6.40
2022-10-22T16:14:45.000Z,9.60
2022-10-22T16:24:45.000Z,7.10
2022-10-22T16:34:45.000Z,8.90
2022-10-22T16:44:45.000Z,11.30
2022-10-22T16:54:45.000Z,13.50
2022-10-22T17:14:46.000Z,13.00
2022-10-22T17:24:46.000Z,12.70
2022-10-22T17:34:46.000Z,14.70
2022-10-22T17:44:46.000Z,25.60
2022-10-22T17:54:46.000Z,38.90
2022-10-22T18:04:47.000Z,33.40
2022-10-22T18:14:47.000Z,26.70
2022-10-22T18:24:47.000Z,14.60
2022-10-22T18:44:48.000Z,14.30
2022-10-22T18:54:48.000Z,16.70
2022-10-22T19:04:48.000Z,13.80
2022-10-22T19:14:49.000Z,15.80
2022-10-22T19:24:49.000Z,14.70
2022-10-22T19:34:49.000Z,12.20
2022-10-22T19:44:49.000Z,12.50
2022-10-22T19:54:50.000Z,13.70
2022-10-22T20:14:50.000Z,11.80
2022-10-22T20:24:51.000Z,13.40
2022-10-22T20:34:51.000Z,12.90
2022-10-22T20:44:51.000Z,12.80
2022-10-22T20:54:52.000Z,13.70
2022-10-22T21:04:52.000Z,13.30
2022-10-22T21:14:53.000Z,13.70
2022-10-22T21:24:53.000Z,15.20
2022-10-22T21:44:54.000Z,11.50
2022-10-22T21:54:54.000Z,12.80
2022-10-22T22:04:55.000Z,12.30
2022-10-22T22:14:55.000Z,11.80
2022-10-22T22:24:56.000Z,13.20
2022-10-22T22:34:56.000Z,12.10
2022-10-22T22:44:57.000Z,11.00
2022-10-22T22:54:57.000Z,15.30
2022-10-22T23:14:58.000Z,17.50
2022-10-22T23:24:59.000Z,20.60
2022-10-22T23:34:59.000Z,21.20
2022-10-22T23:45:00.000Z,21.90
2022-10-22T23:55:00.000Z,25.80
